KJAN/JAN METAR and TAF weather

Enter ICAO airport designator
Station Type Date Time Source
KJAN METAR 2018/12/18 19:54 UTC NOAA

KJAN 181954Z VRB03KT 10SM FEW032 SCT250 18/08 A3009 RMK AO2 SLP190 T01780083 $


Station Type Date Time Source
KJAN Decoded METAR 2018/12/18 19:54 UTC NOAA

Jackson, Jackson International Airport, MS, United States (KJAN) 32-19-11N 090-04-39W 89M
Dec 18, 2018 - 02:54 PM EST / 2018.12.18 1954 UTC
Wind: Variable at 3 MPH (3 KT):0
Visibility: 10 mile(s):0
Sky conditions: partly cloudy
Temperature: 64.0 F (17.8 C)
Dew Point: 46.9 F (8.3 C)
Relative Humidity: 53%
Pressure (altimeter): 30.09 in. Hg (1018 hPa)
ob: KJAN 181954Z VRB03KT 10SM FEW032 SCT250 18/08 A3009 RMK AO2 SLP190 T01780083
cycle: 20

Station Type Date Time Source
KJAN TAF 2018/12/18 18:22 UTC NOAA

TAF KJAN 181720Z 1818/1918 15003KT P6SM SCT250
FM190800 00000KT 6SM BR SCT250
FM191300 14006KT P6SM BKN250


Example: see airport list